Terminal Aerodrome Forecast
Issued by NWS

Home | Current Version | Previous Version | Text Only | Print | Product List | Glossary On
Versions: 1 2 3 4 5 6 7 8 9 10 11 12 13 14
000
FTUS44 KEPZ 181742
TAFTCS
TAF
KTCS 181742Z 1818/1918 19006KT P6SM SCT020 BKN045
      TEMPO 1818/1821 BKN020
     FM190200 30005KT P6SM FEW030 BKN080
     FM190500 30005KT P6SM FEW050 SCT150=

USA.gov is the U.S. government's official web portal to all federal, state and local government web resources and services.